Flight Track Log - Related Links

Times and Time Zones

All times are in EDT time to prevent confusion due to time zone crossing. See the AFR1068 flight status page for this flight to view local times or setup timezone preferences in your user account.

Time Position Orientation Groundspeed Altitude Reporting Facility
EDT Latitude Longitude Course Direction KTS MPH feet Rate Location/Type
Wed 07:23:00 AM 49.7340 1.8229 327° Northwest  Level Estimated
Wed 07:24:00 AM 49.7820 1.7736 326° Northwest  Level Estimated
Wed 07:25:00 AM 49.8298 1.7243 326° Northwest  Level Estimated
Wed 07:26:00 AM 49.8777 1.6749 326° Northwest  Level Estimated
Wed 07:27:00 AM 49.9256 1.6253 326° Northwest  Level Estimated
Wed 07:28:00 AM 49.9734 1.5757 326° Northwest  Level Estimated
Wed 07:29:00 AM 50.0212 1.5260 326° Northwest  Level Estimated
Wed 07:30:00 AM 50.0690 1.4761 326° Northwest  Level Estimated
Wed 07:31:00 AM 50.1168 1.4262 326° Northwest  Level Estimated
Wed 07:32:00 AM 50.1646 1.3762 326° Northwest  Level Estimated
Wed 07:33:00 AM 50.2123 1.3261 326° Northwest  Level Estimated
Wed 07:34:00 AM 50.2600 1.2758 326° Northwest  Level Estimated
Wed 07:35:00 AM 50.3077 1.2255 326° Northwest  Level Estimated
Wed 07:36:00 AM 50.3553 1.1751 326° Northwest  Level Estimated
Wed 07:37:00 AM 50.4030 1.1245 326° Northwest  Level Estimated
Wed 07:38:00 AM 50.4506 1.0739 326° Northwest  Level Estimated
Wed 07:39:00 AM 50.4982 1.0232 326° Northwest  Level Estimated
Wed 07:40:00 AM 50.5458 0.9723 326° Northwest  Level Estimated
Wed 07:41:00 AM 50.6092 0.9044 326° Northwest  Level Estimated
Wed 07:42:00 AM 50.6725 0.8363 326° Northwest  Level Estimated
Wed 07:43:00 AM 50.7359 0.7679 326° Northwest  Level Estimated
Wed 07:44:00 AM 50.7991 0.6994 326° Northwest  Level Estimated
Wed 07:45:00 AM 50.8624 0.6308 326° Northwest  Level Estimated
Wed 07:46:00 AM 50.9256 0.5619 326° Northwest  Level Estimated
Wed 07:47:00 AM 50.9887 0.4928 325° Northwest  Level Estimated
Wed 07:48:00 AM 51.0519 0.4236 325° Northwest  Level Estimated
Wed 07:49:00 AM 51.1149 0.3542 325° Northwest  Level Estimated
Wed 07:50:00 AM 51.1780 0.2845 325° Northwest  Level Estimated
Wed 07:51:00 AM 51.2410 0.2147 325° Northwest  Level Estimated
Wed 07:52:00 AM 51.3039 0.1447 325° Northwest  Level Estimated
Wed 07:53:00 AM 51.3668 0.0745 325° Northwest  Level Estimated
Wed 07:54:00 AM 51.4297 0.0041 325° Northwest  Level Estimated
Wed 07:55:00 AM 51.4925 -0.0664 325° Northwest  Level Estimated
Wed 07:56:00 AM 51.5553 -0.1372 325° Northwest  Level Estimated
Wed 07:57:00 AM 51.6180 -0.2082 325° Northwest  Level Estimated
Wed 07:58:00 AM 51.6808 -0.2794 325° Northwest  Level Estimated
Wed 07:59:00 AM 51.7434 -0.3507 325° Northwest  Level Estimated
Wed 08:00:00 AM 51.8060 -0.4223 325° Northwest  Level Estimated
Wed 08:01:00 AM 51.8686 -0.4941 325° Northwest  Level Estimated
Wed 08:02:00 AM 51.9311 -0.5661 325° Northwest  Level Estimated
Wed 08:03:00 AM 51.9936 -0.6382 325° Northwest  Level Estimated
Wed 08:04:00 AM 52.0560 -0.7106 325° Northwest  Level Estimated
Wed 08:05:00 AM 52.1184 -0.7832 324° Northwest  Level Estimated
Wed 08:06:00 AM 52.1808 -0.8559 324° Northwest  Level Estimated
Wed 08:07:00 AM 52.2431 -0.9289 324° Northwest  Level Estimated
Wed 08:08:00 AM 52.3053 -1.0021 324° Northwest  Level Estimated
Wed 08:09:00 AM 52.3675 -1.0755 324° Northwest  Level Estimated
Wed 08:10:00 AM 52.4297 -1.1491 324° Northwest  Level Estimated
Wed 08:11:00 AM 52.4918 -1.2229 324° Northwest  Level Estimated
Wed 08:12:00 AM 52.5539 -1.2969 324° Northwest  Level Estimated
Wed 08:13:00 AM 52.6159 -1.3711 324° Northwest  Level Estimated
Wed 08:14:00 AM 52.6779 -1.4455 324° Northwest  Level Estimated
Wed 08:15:00 AM 52.7398 -1.5202 324° Northwest  Level Estimated
Wed 08:16:00 AM 52.8017 -1.5950 324° Northwest  Level Estimated
Wed 08:17:00 AM 52.8636 -1.6701 324° Northwest  Level Estimated
Wed 08:18:00 AM 52.9254 -1.7454 324° Northwest  Level Estimated
Wed 08:19:00 AM 52.9871 -1.8209 324° Northwest  Level Estimated
Wed 08:20:00 AM 53.0488 -1.8966 324° Northwest  Level Estimated
Wed 08:21:00 AM 53.1105 -1.9726 324° Northwest  Level Estimated
Wed 08:22:00 AM 53.1721 -2.0487 323° Northwest  Level Estimated
Wed 08:23:00 AM 53.2336 -2.1251 323° Northwest  Level Estimated
Wed 08:24:00 AM 53.2951 -2.2017 323° Northwest  Level Estimated
Wed 08:25:00 AM 53.3537 -2.2750 323° Northwest  Level Estimated
Wed 08:26:00 AM 53.3537 -2.2750 North  Level Estimated
Wed 08:27:00 AM 53.3537 -2.2750 North  Level Estimated
Wed 08:28:00 AM 53.3537 -2.2750 North  Level Estimated
Wed 08:29:00 AM 53.3537 -2.2750 North  Level Estimated
Wed 08:30:00 AM 53.3537 -2.2750 North  Level Estimated
Wed 08:31:00 AM 53.3537 -2.2750 North  Level Estimated

Login

Don't have an account? Register now (free) for customized features, flight alerts, and more!